Time;durP1;ratioP1;P1;durP2;ratioP2;P2;SDS_P1;SDS_P2;PMS_P1;PMS_P2;Temp;Humidity;BMP_temperature;BMP_pressure;BME280_temperature;BME280_humidity;BME280_pressure;Samples;Min_cycle;Max_cycle;Signal;HPM_P1;HPM_P2
2023/08/23 00:00:39;;;;;;;2.38;1.92;;;;;;;20.66;67.92;100505.00;5018878;28;20233;-67
2023/08/23 00:03:07;;;;;;;2.55;2.20;;;;;;;20.70;68.66;100503.94;5030991;28;20198;-67
2023/08/23 00:05:35;;;;;;;3.90;2.45;;;;;;;20.71;69.73;100505.66;5030821;28;20229;-66
2023/08/23 00:08:03;;;;;;;3.55;2.50;;;;;;;20.68;70.02;100513.63;5035180;28;20673;-67
2023/08/23 00:10:30;;;;;;;4.10;2.40;;;;;;;20.65;70.49;100516.38;5034919;28;20682;-66
2023/08/23 00:12:59;;;;;;;2.88;2.50;;;;;;;20.62;68.67;100507.81;5034624;28;20206;-66
2023/08/23 00:15:29;;;;;;;4.03;2.33;;;;;;;20.55;67.78;100504.66;5034752;28;20237;-66
2023/08/23 00:17:57;;;;;;;3.75;2.45;;;;;;;20.54;67.46;100502.09;5035141;28;20211;-67
2023/08/23 00:20:25;;;;;;;3.88;2.35;;;;;;;20.48;66.92;100511.06;5033617;28;20572;-69
2023/08/23 00:22:53;;;;;;;4.65;2.63;;;;;;;20.45;66.86;100496.34;5034340;28;20293;-66
2023/08/23 00:25:21;;;;;;;5.10;2.67;;;;;;;20.41;66.84;100507.00;5032950;28;20662;-65
2023/08/23 00:27:49;;;;;;;4.25;2.50;;;;;;;20.40;66.97;100498.31;5035202;28;20203;-67
2023/08/23 00:30:38;;;;;;;3.42;2.63;;;;;;;20.37;66.84;100497.59;5034753;28;20210;-67
2023/08/23 00:33:06;;;;;;;4.28;2.50;;;;;;;20.30;67.59;100498.78;5016175;28;20234;-67
2023/08/23 00:35:35;;;;;;;7.43;3.00;;;;;;;20.24;67.79;100495.50;5026538;28;20238;-67
2023/08/23 00:38:03;;;;;;;6.25;3.17;;;;;;;20.24;67.61;100492.91;5031149;28;20678;-67
2023/08/23 00:40:32;;;;;;;4.25;3.03;;;;;;;20.24;67.99;100500.75;5024406;28;20612;-67
2023/08/23 00:43:00;;;;;;;4.00;2.63;;;;;;;20.24;68.43;100503.38;5018581;28;20210;-66
2023/08/23 00:45:29;;;;;;;4.32;2.72;;;;;;;20.25;69.01;100497.25;5023077;28;20206;-67
2023/08/23 00:47:59;;;;;;;3.45;2.88;;;;;;;20.33;70.04;100499.50;5033463;28;20206;-68
2023/08/23 00:50:28;;;;;;;4.72;3.35;;;;;;;20.35;69.45;100491.56;5022529;28;20203;-66
2023/08/23 00:52:56;;;;;;;5.25;3.15;;;;;;;20.34;68.61;100493.34;5034543;28;20732;-67
2023/08/23 00:55:24;;;;;;;8.15;2.97;;;;;;;20.36;69.42;100488.91;5020543;28;20198;-66
2023/08/23 00:57:53;;;;;;;4.22;3.25;;;;;;;20.35;69.96;100494.19;5034281;28;20238;-67
2023/08/23 01:00:22;;;;;;;3.67;2.90;;;;;;;20.35;69.52;100500.28;5033999;28;20579;-66
2023/08/23 01:02:50;;;;;;;3.83;3.00;;;;;;;20.35;68.97;100499.44;5033300;28;20210;-66
2023/08/23 01:05:23;;;;;;;5.80;3.47;;;;;;;20.33;68.66;100494.28;5034271;28;20209;-67
2023/08/23 01:08:00;;;;;;;3.75;2.72;;;;;;;20.35;68.73;100488.97;5034267;28;20665;-66
2023/08/23 01:10:35;;;;;;;5.05;3.42;;;;;;;20.35;69.11;100484.56;5034390;28;20573;-67
2023/08/23 01:13:13;;;;;;;5.40;3.15;;;;;;;20.39;70.10;100487.91;5033782;28;20575;-67
2023/08/23 01:15:42;;;;;;;4.85;3.40;;;;;;;20.40;70.80;100486.97;5033552;28;20299;-68
2023/08/23 01:18:10;;;;;;;3.95;2.50;;;;;;;20.40;71.22;100484.34;5033110;28;20573;-66
2023/08/23 01:20:40;;;;;;;3.75;3.00;;;;;;;20.34;71.67;100482.03;5032576;28;20277;-66
2023/08/23 01:23:12;;;;;;;5.15;3.55;;;;;;;20.24;72.15;100482.44;5033323;28;20210;-67
2023/08/23 01:25:43;;;;;;;3.55;3.25;;;;;;;20.18;71.87;100482.72;5033257;28;20221;-70
2023/08/23 01:28:11;;;;;;;4.38;3.08;;;;;;;20.11;72.16;100481.28;5020611;28;20704;-68
2023/08/23 01:30:40;;;;;;;6.05;3.35;;;;;;;20.06;71.91;100477.16;5033554;28;20207;-65
2023/08/23 01:33:14;;;;;;;6.60;3.17;;;;;;;20.03;72.05;100473.78;5032004;28;20261;-67
2023/08/23 01:35:49;;;;;;;5.13;3.30;;;;;;;20.01;71.61;100483.44;5033515;28;20761;-68
2023/08/23 01:38:22;;;;;;;4.15;3.75;;;;;;;19.90;72.21;100485.69;5033387;28;20653;-67
2023/08/23 01:40:51;;;;;;;4.38;3.67;;;;;;;19.89;72.45;100485.75;5033328;28;20214;-65
2023/08/23 01:43:19;;;;;;;4.70;3.53;;;;;;;19.90;72.77;100483.06;5032652;28;20302;-67
2023/08/23 01:45:47;;;;;;;4.35;3.70;;;;;;;19.91;72.89;100479.53;5032943;28;20213;-68
2023/08/23 01:48:15;;;;;;;4.82;3.58;;;;;;;19.93;72.84;100476.88;5033077;28;20199;-67
2023/08/23 01:50:43;;;;;;;11.20;3.63;;;;;;;19.97;72.68;100484.50;5033068;28;20736;-67
2023/08/23 01:53:11;;;;;;;6.70;3.85;;;;;;;19.96;72.57;100487.19;5018872;28;20261;-69
2023/08/23 01:55:41;;;;;;;6.65;3.25;;;;;;;19.92;72.67;100483.00;5033096;28;20237;-66
2023/08/23 01:58:09;;;;;;;4.55;3.75;;;;;;;19.88;73.00;100486.66;5033466;28;20272;-67
2023/08/23 02:00:37;;;;;;;4.45;3.35;;;;;;;19.85;73.00;100485.03;5032520;28;20253;-67
2023/08/23 02:03:05;;;;;;;6.25;3.60;;;;;;;19.85;73.11;100490.28;5029592;28;20206;-67
2023/08/23 02:05:33;;;;;;;5.95;3.55;;;;;;;19.88;73.14;100494.50;5033334;28;20207;-67
2023/08/23 02:08:01;;;;;;;6.00;3.35;;;;;;;19.89;72.76;100491.00;5032901;28;20202;-67
2023/08/23 02:10:29;;;;;;;4.80;3.25;;;;;;;19.89;72.90;100493.59;5033241;28;20658;-65
2023/08/23 02:12:58;;;;;;;5.28;3.83;;;;;;;19.88;72.73;100492.72;5021762;28;20261;-69
2023/08/23 02:15:26;;;;;;;5.85;4.15;;;;;;;19.88;73.01;100486.66;5030237;28;20203;-66
2023/08/23 02:17:54;;;;;;;6.57;3.55;;;;;;;19.88;73.09;100486.66;5032605;28;20654;-66
2023/08/23 02:20:22;;;;;;;4.30;3.33;;;;;;;19.88;73.37;100491.88;5029061;28;20715;-66
2023/08/23 02:22:51;;;;;;;8.35;4.20;;;;;;;19.85;73.31;100484.19;5033231;28;20257;-67
2023/08/23 02:25:18;;;;;;;5.75;3.75;;;;;;;19.86;73.48;100491.13;5032731;28;20217;-66
2023/08/23 02:27:46;;;;;;;5.78;3.88;;;;;;;19.85;73.40;100492.88;5033100;28;20708;-66
2023/08/23 02:30:16;;;;;;;6.63;3.60;;;;;;;19.83;73.51;100486.00;5023431;28;20283;-67
2023/08/23 02:32:44;;;;;;;5.03;3.63;;;;;;;19.79;73.56;100488.75;5028095;28;20242;-67
2023/08/23 02:35:12;;;;;;;4.70;3.72;;;;;;;19.77;73.95;100501.06;5032242;28;20211;-68
2023/08/23 02:37:40;;;;;;;9.80;4.10;;;;;;;19.77;74.03;100492.34;5031433;28;20210;-68
2023/08/23 02:40:09;;;;;;;4.18;3.50;;;;;;;19.73;74.21;100496.84;5032333;28;20269;-66
2023/08/23 02:42:37;;;;;;;5.43;3.75;;;;;;;19.75;74.38;100500.25;5032425;28;20213;-70
2023/08/23 02:45:06;;;;;;;4.53;3.75;;;;;;;19.74;74.07;100506.41;5027528;28;20198;-71
2023/08/23 02:47:35;;;;;;;6.90;4.07;;;;;;;19.73;74.03;100506.47;5024302;28;20734;-66
2023/08/23 02:50:04;;;;;;;6.07;4.05;;;;;;;19.72;74.35;100505.63;5031984;28;20248;-67
2023/08/23 02:52:32;;;;;;;4.68;4.10;;;;;;;19.72;73.75;100503.00;5031835;28;20241;-66
2023/08/23 02:54:59;;;;;;;4.50;3.97;;;;;;;19.76;73.97;100506.34;5017859;28;20645;-67
2023/08/23 02:57:27;;;;;;;6.00;3.88;;;;;;;19.77;73.56;100503.69;5031962;28;20294;-66
2023/08/23 02:59:58;;;;;;;7.05;4.05;;;;;;;19.74;73.48;100503.81;5031961;28;20246;-69
2023/08/23 03:02:26;;;;;;;4.68;4.10;;;;;;;19.67;74.00;100507.59;5032059;28;20578;-67
2023/08/23 03:04:56;;;;;;;7.28;3.92;;;;;;;19.60;74.24;100502.66;5031728;28;20249;-68
2023/08/23 03:07:24;;;;;;;6.43;3.72;;;;;;;19.58;74.26;100497.47;5031835;28;20260;-67
2023/08/23 03:09:51;;;;;;;6.88;3.92;;;;;;;19.60;74.30;100505.25;5031822;28;20587;-66
2023/08/23 03:12:20;;;;;;;8.45;4.80;;;;;;;19.58;74.08;100507.06;5031977;28;20305;-68
2023/08/23 03:14:48;;;;;;;6.50;4.38;;;;;;;19.54;74.29;100511.56;5020532;28;20716;-67
2023/08/23 03:17:16;;;;;;;8.90;5.00;;;;;;;19.50;74.34;100510.84;5026126;28;20207;-67
2023/08/23 03:19:43;;;;;;;7.20;5.55;;;;;;;19.48;74.11;100517.06;5022723;28;20222;-65
2023/08/23 03:22:13;;;;;;;8.77;5.82;;;;;;;19.45;74.54;100511.97;5032193;28;20741;-67
2023/08/23 03:24:41;;;;;;;8.23;5.32;;;;;;;19.44;74.52;100513.75;5032163;28;20222;-68
2023/08/23 03:27:09;;;;;;;6.47;5.32;;;;;;;19.43;74.50;100513.78;5031964;28;20252;-69
2023/08/23 03:29:37;;;;;;;8.57;5.90;;;;;;;19.44;74.42;100515.47;5032014;28;20650;-69
2023/08/23 03:32:05;;;;;;;6.28;5.70;;;;;;;19.43;74.31;100514.63;5032041;28;20242;-68
2023/08/23 03:34:33;;;;;;;7.00;5.30;;;;;;;19.42;74.38;100512.94;5031807;28;20260;-67
2023/08/23 03:37:01;;;;;;;6.40;5.32;;;;;;;19.41;74.27;100521.69;5032339;28;20211;-68
2023/08/23 03:39:30;;;;;;;8.77;5.10;;;;;;;19.40;74.42;100525.19;5017735;28;20223;-66
2023/08/23 03:41:58;;;;;;;7.70;5.45;;;;;;;19.38;74.51;100528.81;5037492;28;20210;-67
2023/08/23 03:44:27;;;;;;;7.25;5.82;;;;;;;19.36;74.36;100517.56;5038597;28;20202;-66
2023/08/23 03:46:56;;;;;;;11.93;7.22;;;;;;;19.34;74.57;100522.84;5033155;28;20207;-67
2023/08/23 03:49:24;;;;;;;10.73;7.75;;;;;;;19.33;74.55;100518.56;5038757;28;20260;-67
2023/08/23 03:51:55;;;;;;;10.23;7.80;;;;;;;19.30;74.78;100524.75;5038380;28;20209;-67
2023/08/23 03:54:23;;;;;;;10.27;7.85;;;;;;;19.29;74.87;100523.03;5038346;28;20206;-68
2023/08/23 03:56:52;;;;;;;9.30;7.45;;;;;;;19.28;74.79;100515.25;5037410;28;20205;-66
2023/08/23 03:59:20;;;;;;;11.07;7.45;;;;;;;19.30;74.82;100516.91;5037658;28;20224;-67
2023/08/23 04:01:48;;;;;;;13.10;7.95;;;;;;;19.31;74.76;100521.22;5038127;28;20214;-67
2023/08/23 04:04:16;;;;;;;10.65;8.00;;;;;;;19.30;74.25;100511.69;5038465;28;20684;-68
2023/08/23 04:06:44;;;;;;;10.13;7.22;;;;;;;19.29;74.63;100523.03;5038211;28;20211;-65
2023/08/23 04:09:13;;;;;;;11.90;7.50;;;;;;;19.27;74.23;100524.00;5038325;28;20206;-68
2023/08/23 04:11:41;;;;;;;10.13;7.53;;;;;;;19.24;74.59;100514.53;5037696;28;20198;-67
2023/08/23 04:14:10;;;;;;;13.40;8.43;;;;;;;19.27;74.63;100519.63;5038432;28;20201;-67
2023/08/23 04:16:38;;;;;;;10.95;7.55;;;;;;;19.33;74.40;100523.78;5037790;28;20689;-68
2023/08/23 04:19:07;;;;;;;10.55;7.93;;;;;;;19.38;73.96;100523.59;5037333;28;20205;-67
2023/08/23 04:21:35;;;;;;;9.13;8.00;;;;;;;19.43;73.68;100529.47;5037533;28;20238;-67
2023/08/23 04:24:03;;;;;;;10.32;7.60;;;;;;;19.43;73.31;100529.47;5053069;28;20202;-67
2023/08/23 04:26:31;;;;;;;13.70;7.80;;;;;;;19.46;73.65;100527.56;5038136;28;20623;-66
2023/08/23 04:28:58;;;;;;;12.85;8.40;;;;;;;19.53;73.21;100525.56;5037312;28;20214;-66
2023/08/23 04:31:28;;;;;;;10.52;7.85;;;;;;;19.62;72.66;100524.34;5037428;28;20238;-68
2023/08/23 04:33:56;;;;;;;11.10;7.40;;;;;;;19.69;72.69;100526.66;5038216;28;20209;-68
2023/08/23 04:36:24;;;;;;;8.23;6.72;;;;;;;19.73;72.60;100516.91;5033916;28;20609;-67
2023/08/23 04:38:53;;;;;;;9.55;6.85;;;;;;;19.77;72.05;100519.38;5028849;28;20202;-67
2023/08/23 04:41:21;;;;;;;8.18;6.18;;;;;;;19.82;71.59;100527.00;5038049;28;20222;-66
2023/08/23 04:43:49;;;;;;;12.32;6.75;;;;;;;19.87;70.96;100524.19;5037508;28;20638;-67
2023/08/23 04:46:17;;;;;;;9.80;5.72;;;;;;;19.95;70.49;100522.09;5036890;28;20207;-66
2023/08/23 04:48:46;;;;;;;7.85;5.75;;;;;;;20.00;69.64;100521.00;5037452;28;20229;-66
2023/08/23 04:51:15;;;;;;;7.35;5.38;;;;;;;20.05;69.38;100528.63;5037958;28;20620;-66
2023/08/23 04:53:43;;;;;;;6.07;5.13;;;;;;;20.10;69.52;100523.19;5033133;28;20234;-67
2023/08/23 04:56:11;;;;;;;9.90;5.45;;;;;;;20.22;69.36;100528.78;5034290;28;20272;-67
2023/08/23 04:58:39;;;;;;;7.28;5.25;;;;;;;20.36;68.67;100528.16;5020315;28;20252;-67
2023/08/23 05:01:07;;;;;;;6.05;5.07;;;;;;;20.49;68.22;100533.69;5022682;28;20227;-66
2023/08/23 05:03:36;;;;;;;5.68;4.78;;;;;;;20.59;67.37;100534.16;5031715;28;20215;-66
2023/08/23 05:06:05;;;;;;;10.43;5.00;;;;;;;20.65;66.56;100529.47;5033523;28;20210;-67
2023/08/23 05:08:34;;;;;;;7.63;4.75;;;;;;;20.71;66.21;100538.84;5033612;28;20684;-67
2023/08/23 05:11:02;;;;;;;7.75;4.93;;;;;;;20.78;66.13;100545.50;5033265;28;20202;-68
2023/08/23 05:13:30;;;;;;;8.70;4.55;;;;;;;20.88;65.75;100546.78;5033211;28;20233;-68
2023/08/23 05:15:58;;;;;;;6.18;4.00;;;;;;;21.01;65.04;100544.44;5025797;28;20211;-68
2023/08/23 05:18:26;;;;;;;6.28;3.90;;;;;;;21.09;64.12;100544.91;5027453;28;20276;-67
2023/08/23 05:20:55;;;;;;;5.35;4.32;;;;;;;21.20;63.38;100534.75;5019693;28;20214;-65
2023/08/23 05:23:25;;;;;;;8.45;4.25;;;;;;;21.31;62.80;100531.63;5032081;28;20289;-66
2023/08/23 05:25:53;;;;;;;9.18;4.55;;;;;;;21.53;62.02;100539.34;5032884;28;20190;-68
2023/08/23 05:28:22;;;;;;;11.15;3.70;;;;;;;21.77;61.19;100541.69;5033098;28;20206;-70
2023/08/23 05:30:51;;;;;;;6.88;4.13;;;;;;;22.04;60.05;100537.66;5032943;28;20209;-66
2023/08/23 05:33:19;;;;;;;6.75;3.72;;;;;;;22.30;59.06;100544.19;5026461;28;20271;-67
2023/08/23 05:35:47;;;;;;;5.07;3.90;;;;;;;22.48;57.95;100539.75;5025840;28;20210;-66
2023/08/23 05:38:15;;;;;;;7.05;3.75;;;;;;;22.49;57.40;100544.06;5033181;28;20202;-66
2023/08/23 05:40:45;;;;;;;15.90;9.77;;;;;;;22.32;57.70;100544.97;5021617;28;20254;-67
2023/08/23 05:43:13;;;;;;;5.35;3.63;;;;;;;22.09;57.72;100543.53;5031165;28;20202;-66
2023/08/23 05:45:41;;;;;;;7.57;3.65;;;;;;;21.85;58.72;100545.59;5032710;28;20587;-66
2023/08/23 05:48:09;;;;;;;5.18;3.33;;;;;;;21.69;59.51;100549.94;5026845;28;20206;-67
2023/08/23 05:50:38;;;;;;;7.85;3.30;;;;;;;21.56;59.83;100551.44;5032506;28;20230;-66
2023/08/23 05:53:09;;;;;;;7.38;3.97;;;;;;;21.52;60.20;100555.16;5032675;28;20215;-68
2023/08/23 05:55:38;;;;;;;5.00;3.50;;;;;;;21.43;60.00;100554.69;5024406;28;20223;-65
2023/08/23 05:58:07;;;;;;;5.93;2.97;;;;;;;21.35;60.20;100555.97;5026656;28;20642;-68
2023/08/23 06:00:35;;;;;;;5.28;3.05;;;;;;;21.38;60.82;100558.44;5019564;28;20648;-68
2023/08/23 06:03:04;;;;;;;7.28;3.22;;;;;;;21.69;60.94;100550.78;5032323;28;20242;-67
2023/08/23 06:05:32;;;;;;;4.93;3.50;;;;;;;22.99;58.53;100550.19;5018611;28;20666;-67
2023/08/23 06:08:02;;;;;;;5.38;2.90;;;;;;;24.89;53.90;100539.00;5032459;28;20261;-68
2023/08/23 06:10:30;;;;;;;5.97;3.30;;;;;;;26.94;47.96;100536.59;5032449;28;20253;-66
2023/08/23 06:12:58;;;;;;;5.00;3.15;;;;;;;29.15;42.52;100530.31;5032191;28;20210;-67
2023/08/23 06:15:27;;;;;;;5.22;3.38;;;;;;;31.29;36.94;100518.97;5032297;28;20210;-68
2023/08/23 06:17:56;;;;;;;3.33;2.70;;;;;;;33.21;33.53;100522.16;5022452;28;20281;-68
2023/08/23 06:20:24;;;;;;;7.95;3.35;;;;;;;34.99;30.02;100526.13;5028352;28;20207;-68
2023/08/23 06:22:52;;;;;;;4.88;2.60;;;;;;;36.50;27.39;100527.38;5032200;28;20582;-68
2023/08/23 06:25:20;;;;;;;3.92;2.85;;;;;;;37.51;24.92;100510.28;5032202;28;20601;-67
2023/08/23 06:27:48;;;;;;;6.55;3.17;;;;;;;38.45;24.62;100520.63;5031788;28;20198;-66
2023/08/23 06:30:17;;;;;;;3.97;2.90;;;;;;;39.46;22.32;100510.72;5032246;28;20565;-69
2023/08/23 06:32:50;;;;;;;7.45;2.92;;;;;;;40.39;21.29;100516.72;5030071;28;20607;-66
2023/08/23 06:35:20;;;;;;;8.38;3.28;;;;;;;41.09;20.55;100518.22;5020608;28;20217;-69
2023/08/23 06:37:48;;;;;;;4.32;3.20;;;;;;;41.60;19.74;100519.50;5032003;28;20209;-67
2023/08/23 06:40:17;;;;;;;5.20;2.72;;;;;;;42.05;19.16;100528.63;5031677;28;20293;-67
2023/08/23 06:42:45;;;;;;;6.00;3.30;;;;;;;42.52;18.04;100532.03;5031833;28;20709;-68
2023/08/23 06:45:13;;;;;;;5.28;3.28;;;;;;;43.00;17.46;100536.16;5031615;28;20206;-67
2023/08/23 06:47:41;;;;;;;5.75;2.70;;;;;;;43.32;16.97;100539.72;5031819;28;20614;-68
2023/08/23 06:50:11;;;;;;;5.47;2.80;;;;;;;43.60;16.39;100528.41;5031578;28;20206;-67
2023/08/23 06:52:43;;;;;;;2.92;2.63;;;;;;;43.64;16.33;100533.19;5031888;28;20720;-67
2023/08/23 06:55:11;;;;;;;4.82;2.60;;;;;;;43.78;16.28;100538.47;5031248;28;20210;-67
2023/08/23 06:57:39;;;;;;;7.47;2.63;;;;;;;44.26;16.04;100530.47;5031350;28;20202;-70
2023/08/23 07:00:09;;;;;;;4.55;3.03;;;;;;;44.84;15.29;100531.81;5017322;28;20268;-68
2023/08/23 07:02:36;;;;;;;4.47;2.78;;;;;;;45.25;15.30;100538.34;5031301;28;20225;-68
2023/08/23 07:05:05;;;;;;;6.18;5.20;;;;;;;45.51;14.90;100529.75;5029410;28;20209;-68
2023/08/23 07:07:34;;;;;;;5.70;3.53;;;;;;;45.63;14.59;100539.81;5019942;28;20205;-69
2023/08/23 07:10:02;;;;;;;5.88;3.15;;;;;;;45.85;14.96;100543.63;5031402;28;20213;-68
2023/08/23 07:12:48;;;;;;;6.00;3.35;;;;;;;45.89;14.77;100547.53;5030075;28;20201;-67
2023/08/23 07:15:17;;;;;;;4.03;2.60;;;;;;;45.71;14.68;100544.91;5028382;28;20206;-68
2023/08/23 07:17:45;;;;;;;4.90;2.83;;;;;;;45.81;14.22;100542.41;5019689;28;20566;-68
2023/08/23 07:20:13;;;;;;;4.70;2.80;;;;;;;45.85;14.22;100540.91;5030897;28;20285;-68
2023/08/23 07:22:42;;;;;;;5.38;2.95;;;;;;;45.72;14.06;100543.84;5031084;28;20677;-68
2023/08/23 07:25:10;;;;;;;3.70;2.70;;;;;;;45.73;13.78;100542.75;5031009;28;20210;-67
2023/08/23 07:27:38;;;;;;;3.75;2.72;;;;;;;45.24;14.34;100547.56;5030935;28;20676;-67
2023/08/23 07:30:08;;;;;;;5.63;3.30;;;;;;;44.77;15.30;100547.41;5023090;28;20317;-67
2023/08/23 07:32:36;;;;;;;7.50;3.28;;;;;;;44.59;15.64;100546.38;5024797;28;20233;-67
2023/08/23 07:35:05;;;;;;;10.25;3.55;;;;;;;44.41;15.45;100546.41;5018128;28;20323;-69
2023/08/23 07:37:33;;;;;;;5.82;3.75;;;;;;;44.11;15.63;100543.59;5030848;28;20209;-69
2023/08/23 07:40:04;;;;;;;5.72;3.78;;;;;;;43.96;16.04;100545.84;5030861;28;20210;-68
2023/08/23 07:42:32;;;;;;;9.35;4.20;;;;;;;44.18;15.87;100536.19;5030835;28;20264;-68
2023/08/23 07:45:00;;;;;;;5.35;3.90;;;;;;;44.37;15.52;100542.47;5030948;28;20305;-68
2023/08/23 07:47:28;;;;;;;6.43;3.90;;;;;;;44.36;15.64;100543.53;5030889;28;20666;-69
2023/08/23 07:49:56;;;;;;;9.05;4.45;;;;;;;44.34;15.54;100534.78;5030612;28;20198;-69
2023/08/23 07:52:25;;;;;;;6.20;4.47;;;;;;;44.04;15.43;100540.97;5031011;28;20657;-69
2023/08/23 07:54:53;;;;;;;11.43;4.25;;;;;;;43.63;16.15;100542.38;5030752;28;20198;-68
2023/08/23 07:57:23;;;;;;;4.18;2.17;;;;;;;43.50;15.31;100542.50;5030963;28;20723;-69
2023/08/23 07:59:52;;;;;;;3.83;2.05;;;;;;;43.93;14.10;100547.13;5030483;28;20320;-69
2023/08/23 08:02:20;;;;;;;3.55;1.90;;;;;;;44.40;13.78;100547.44;5030798;28;20612;-68
2023/08/23 08:04:48;;;;;;;2.45;1.65;;;;;;;44.94;13.49;100544.88;5030653;28;20202;-67
2023/08/23 08:07:16;;;;;;;4.53;1.73;;;;;;;45.83;12.88;100545.75;5030674;28;20576;-67
2023/08/23 08:10:05;;;;;;;5.40;1.85;;;;;;;46.21;11.84;100555.31;5030337;28;20264;-68
2023/08/23 08:12:34;;;;;;;3.85;1.55;;;;;;;46.69;11.83;100556.81;5030446;28;20216;-68
2023/08/23 08:15:05;;;;;;;4.65;1.70;;;;;;;47.34;11.49;100561.84;5030602;28;20301;-68
2023/08/23 08:17:35;;;;;;;2.38;1.80;;;;;;;47.58;11.17;100553.50;5017564;28;20570;-68
2023/08/23 08:20:06;;;;;;;2.40;1.80;;;;;;;47.81;11.52;100550.56;5030605;28;20256;-67
2023/08/23 08:22:34;;;;;;;3.47;1.73;;;;;;;47.18;11.50;100552.56;5030057;28;20213;-67
2023/08/23 08:25:03;;;;;;;2.97;1.52;;;;;;;46.55;11.86;100549.97;5030477;28;20214;-67
2023/08/23 08:27:31;;;;;;;3.22;1.60;;;;;;;45.92;11.73;100544.34;5031471;28;20216;-66
2023/08/23 08:30:00;;;;;;;4.45;1.73;;;;;;;45.68;12.13;100548.09;5021718;28;20544;-69
2023/08/23 08:32:29;;;;;;;3.47;1.60;;;;;;;45.38;12.22;100540.84;5034014;28;20366;-69
2023/08/23 08:34:57;;;;;;;5.60;1.63;;;;;;;44.87;12.81;100547.69;5020231;28;20201;-69
2023/08/23 08:37:25;;;;;;;2.53;1.60;;;;;;;44.45;13.17;100544.91;5022254;28;20284;-68
2023/08/23 08:39:53;;;;;;;3.47;1.80;;;;;;;44.13;13.53;100542.31;5032337;28;20208;-66
2023/08/23 08:42:22;;;;;;;4.05;1.75;;;;;;;44.21;13.85;100543.88;5033815;28;20211;-67
2023/08/23 08:44:50;;;;;;;2.10;1.30;;;;;;;44.20;13.33;100544.13;5033950;28;20742;-67
2023/08/23 08:47:19;;;;;;;2.47;1.52;;;;;;;44.31;12.89;100543.41;5033647;28;20213;-67
2023/08/23 08:49:47;;;;;;;2.28;1.52;;;;;;;44.63;12.85;100537.75;5033426;28;20206;-67
2023/08/23 08:52:19;;;;;;;4.63;1.75;;;;;;;44.36;12.44;100533.50;5033636;28;20214;-66
2023/08/23 08:54:50;;;;;;;2.20;1.30;;;;;;;43.85;12.56;100536.53;5033708;28;20344;-68
2023/08/23 08:57:22;;;;;;;5.15;2.67;;;;;;;43.48;12.73;100531.03;5033859;28;20205;-67
2023/08/23 08:59:52;;;;;;;2.25;1.50;;;;;;;43.47;13.13;100531.25;5019995;28;20289;-68
2023/08/23 09:02:23;;;;;;;4.65;1.52;;;;;;;43.57;13.47;100540.56;5033875;28;20248;-68
2023/08/23 09:04:52;;;;;;;3.45;1.55;;;;;;;43.31;12.63;100535.34;5033193;28;20510;-69
2023/08/23 09:07:20;;;;;;;2.63;1.35;;;;;;;42.38;13.73;100542.06;5033400;28;20288;-67
2023/08/23 09:09:49;;;;;;;1.63;1.00;;;;;;;41.59;14.35;100540.34;5020610;28;20207;-68
2023/08/23 09:12:17;;;;;;;2.65;1.73;;;;;;;41.62;14.90;100545.34;5032780;28;20554;-68
2023/08/23 09:14:49;;;;;;;2.88;1.25;;;;;;;41.87;14.58;100552.81;5033239;28;20225;-68
2023/08/23 09:17:26;;;;;;;5.65;1.48;;;;;;;41.84;14.43;100548.69;5019596;28;20202;-69
2023/08/23 09:19:54;;;;;;;2.55;1.63;;;;;;;41.37;14.92;100550.50;5033410;28;20696;-66
2023/08/23 09:22:22;;;;;;;2.75;1.20;;;;;;;40.38;15.67;100558.28;5032615;28;20664;-68
2023/08/23 09:24:50;;;;;;;3.75;1.27;;;;;;;39.53;17.45;100554.75;5032937;28;20230;-68
2023/08/23 09:27:20;;;;;;;2.03;1.50;;;;;;;39.60;16.47;100551.09;5020413;28;20249;-67
2023/08/23 09:30:06;;;;;;;3.53;1.50;;;;;;;39.40;17.28;100554.63;5020954;28;20260;-69
2023/08/23 09:32:35;;;;;;;5.68;1.48;;;;;;;38.98;18.05;100556.28;5033037;28;20237;-65
2023/08/23 09:35:10;;;;;;;3.35;1.40;;;;;;;38.17;18.65;100556.25;5033119;28;20221;-67
2023/08/23 09:37:40;;;;;;;3.95;1.70;;;;;;;37.26;20.29;100552.63;5033151;28;20577;-67
2023/08/23 09:40:16;;;;;;;2.08;1.70;;;;;;;36.02;21.06;100561.41;5032503;28;20578;-67
2023/08/23 09:42:45;;;;;;;2.85;1.60;;;;;;;35.09;21.31;100554.47;5033016;28;20564;-67
2023/08/23 09:45:16;;;;;;;7.63;1.52;;;;;;;34.65;22.03;100563.66;5033140;28;20203;-69
2023/08/23 09:47:50;;;;;;;2.85;1.60;;;;;;;34.40;22.23;100558.19;5032949;28;20257;-67
2023/08/23 09:50:19;;;;;;;2.83;1.55;;;;;;;33.78;22.89;100563.59;5032922;28;20606;-66
2023/08/23 09:52:51;;;;;;;2.85;1.42;;;;;;;33.48;23.77;100566.72;5032797;28;20219;-68
2023/08/23 09:55:21;;;;;;;3.67;1.60;;;;;;;33.57;22.80;100569.28;5032487;28;20274;-66
2023/08/23 09:57:49;;;;;;;3.75;1.52;;;;;;;33.83;21.60;100557.78;5032907;28;20727;-67
2023/08/23 10:00:18;;;;;;;1.42;1.23;;;;;;;34.18;20.19;100556.06;5018486;28;20202;-68
2023/08/23 10:02:48;;;;;;;2.90;1.30;;;;;;;34.85;19.83;100554.38;5032469;28;20214;-66
2023/08/23 10:05:18;;;;;;;2.40;1.17;;;;;;;35.76;19.60;100546.31;5018266;28;20222;-66
2023/08/23 10:07:46;;;;;;;2.40;1.35;;;;;;;36.44;20.04;100549.53;5032611;28;20538;-66
2023/08/23 10:10:15;;;;;;;2.13;1.25;;;;;;;36.33;18.60;100545.38;5032135;28;20252;-66
2023/08/23 10:12:45;;;;;;;2.45;1.60;;;;;;;35.96;19.89;100545.94;5032298;28;20222;-66
2023/08/23 10:15:16;;;;;;;1.95;1.25;;;;;;;35.62;20.50;100549.66;5031931;28;20226;-67
2023/08/23 10:17:47;;;;;;;2.40;1.40;;;;;;;35.51;19.45;100560.72;5031967;28;20206;-69
2023/08/23 10:20:17;;;;;;;5.53;1.40;;;;;;;35.68;19.26;100556.19;5032065;28;20233;-67
2023/08/23 10:22:45;;;;;;;2.28;1.35;;;;;;;36.40;18.75;100559.75;5032121;28;20691;-68
2023/08/23 10:25:17;;;;;;;1.73;1.60;;;;;;;37.10;18.45;100555.44;5032013;28;20226;-66
2023/08/23 10:27:47;;;;;;;2.47;1.25;;;;;;;37.29;18.75;100560.34;5028932;28;20202;-68
2023/08/23 10:30:22;;;;;;;4.30;1.60;;;;;;;37.20;18.83;100556.91;5031818;28;20237;-66
2023/08/23 10:32:50;;;;;;;4.28;1.40;;;;;;;37.36;18.68;100558.63;5017599;28;20239;-66
2023/08/23 10:35:35;;;;;;;2.53;1.30;;;;;;;37.71;17.74;100549.13;5032290;28;20222;-67
2023/08/23 10:38:05;;;;;;;2.13;1.30;;;;;;;37.86;18.15;100551.00;5027442;28;20210;-67
2023/08/23 10:40:34;;;;;;;2.10;1.50;;;;;;;37.71;18.62;100542.91;5021911;28;20212;-66
2023/08/23 10:43:04;;;;;;;1.95;1.27;;;;;;;37.53;18.60;100545.09;5031839;28;20202;-68
2023/08/23 10:45:51;;;;;;;2.03;1.30;;;;;;;36.88;18.69;100547.16;5031861;28;20577;-65
2023/08/23 10:48:21;;;;;;;2.47;1.27;;;;;;;35.29;20.47;100554.16;5031344;28;20224;-68
2023/08/23 10:50:53;;;;;;;2.17;1.20;;;;;;;34.68;21.34;100545.44;5020631;28;20684;-67
2023/08/23 10:53:22;;;;;;;1.45;1.15;;;;;;;34.95;20.88;100544.34;5028962;28;20213;-66
2023/08/23 10:55:54;;;;;;;3.42;1.17;;;;;;;35.67;19.97;100538.44;5031191;28;20199;-67
2023/08/23 10:58:22;;;;;;;5.65;1.70;;;;;;;35.73;19.93;100535.09;5031157;28;20644;-67
2023/08/23 11:00:53;;;;;;;1.90;1.25;;;;;;;35.30;20.41;100534.38;5031551;28;20202;-67
2023/08/23 11:03:22;;;;;;;3.55;1.30;;;;;;;34.89;20.09;100528.94;5017435;28;20207;-67
2023/08/23 11:05:51;;;;;;;3.38;1.25;;;;;;;34.72;20.78;100530.72;5031441;28;20646;-70
2023/08/23 11:08:20;;;;;;;3.00;1.20;;;;;;;34.47;20.81;100531.63;5031011;28;20221;-68
2023/08/23 11:10:48;;;;;;;2.83;1.30;;;;;;;34.26;21.04;100524.81;5031598;28;20206;-69
2023/08/23 11:13:16;;;;;;;1.88;1.45;;;;;;;34.57;21.13;100527.00;5031477;28;20206;-66
2023/08/23 11:15:44;;;;;;;2.95;1.45;;;;;;;34.79;21.24;100526.38;5031103;28;20201;-66
2023/08/23 11:18:14;;;;;;;1.45;1.30;;;;;;;34.72;20.86;100530.72;5031193;28;20249;-68
2023/08/23 11:20:42;;;;;;;2.85;1.13;;;;;;;34.42;20.29;100521.38;5026568;28;20211;-68
2023/08/23 11:23:12;;;;;;;1.88;1.48;;;;;;;33.82;20.77;100516.84;5022029;28;20210;-66
2023/08/23 11:25:40;;;;;;;3.25;1.60;;;;;;;33.28;21.47;100520.56;5030720;28;20222;-67
2023/08/23 11:28:08;;;;;;;1.92;1.05;;;;;;;32.66;22.28;100517.72;5031445;28;20253;-67
2023/08/23 11:30:36;;;;;;;1.77;1.25;;;;;;;32.13;22.56;100515.69;5031188;28;20206;-68
2023/08/23 11:33:05;;;;;;;1.55;1.20;;;;;;;31.71;22.38;100516.91;5030602;28;20238;-66